Time;durP1;ratioP1;P1;durP2;ratioP2;P2;SDS_P1;SDS_P2;PMS_P1;PMS_P2;Temp;Humidity;BMP_temperature;BMP_pressure;BME280_temperature;BME280_humidity;BME280_pressure;Samples;Min_cycle;Max_cycle;Signal;HPM_P1;HPM_P2
2022/06/06 00:01:42;;;;;;;7.18;1.95;;;;;;;;;;5013326;28;20478;-46
2022/06/06 00:04:08;;;;;;;2.67;1.85;;;;;;;;;;5013843;28;20041;-46
2022/06/06 00:06:33;;;;;;;1.48;0.90;;;;;;;;;;5013069;28;20068;-48
2022/06/06 00:08:59;;;;;;;1.73;1.63;;;;;;;;;;5012310;28;20466;-46
2022/06/06 00:11:25;;;;;;;1.40;1.30;;;;;;;;;;5013267;28;20538;-46
2022/06/06 00:13:50;;;;;;;1.40;1.30;;;;;;;;;;5013288;28;20105;-46
2022/06/06 00:16:16;;;;;;;2.05;1.60;;;;;;;;;;5013718;28;20117;-46
2022/06/06 00:18:41;;;;;;;3.25;1.23;;;;;;;;;;5013072;28;20076;-46
2022/06/06 00:21:09;;;;;;;6.43;1.35;;;;;;;;;;5013196;28;20037;-46
2022/06/06 00:23:36;;;;;;;2.10;1.17;;;;;;;;;;5013499;28;20045;-46
2022/06/06 00:26:08;;;;;;;1.25;1.15;;;;;;;;;;5013856;28;20108;-46
2022/06/06 00:28:35;;;;;;;1.63;1.52;;;;;;;;;;5013517;28;20025;-46
2022/06/06 00:34:48;;;;;;;1.70;1.60;;;;;;;;;;5013384;28;20029;-46
2022/06/06 00:36:35;;;;;;;1.60;1.50;;;;;;;;;;5013412;28;20080;-46
2022/06/06 00:39:03;;;;;;;2.30;2.10;;;;;;;;;;5013562;28;20426;-46
2022/06/06 00:41:28;;;;;;;1.15;1.15;;;;;;;;;;5013298;28;20024;-46
2022/06/06 00:44:10;;;;;;;1.83;1.73;;;;;;;;;;5013251;28;20026;-46
2022/06/06 00:46:40;;;;;;;3.85;2.03;;;;;;;;;;4995583;28;20026;-46
2022/06/06 00:49:09;;;;;;;3.45;1.55;;;;;;;;;;5013474;28;20029;-47
2022/06/06 00:51:35;;;;;;;1.85;1.75;;;;;;;;;;5013046;28;20034;-45
2022/06/06 00:54:02;;;;;;;1.50;1.40;;;;;;;;;;5013401;28;20029;-45
2022/06/06 00:56:39;;;;;;;1.42;1.30;;;;;;;;;;5013558;28;20110;-48
2022/06/06 00:59:13;;;;;;;2.35;1.50;;;;;;;;;;5013093;28;20541;-45
2022/06/06 01:01:40;;;;;;;1.83;1.60;;;;;;;;;;5013037;28;20021;-45
2022/06/06 01:04:08;;;;;;;1.42;1.33;;;;;;;;;;5013182;28;20095;-47
2022/06/06 01:06:41;;;;;;;1.58;1.15;;;;;;;;;;5013212;28;20117;-46
2022/06/06 01:09:07;;;;;;;1.95;1.15;;;;;;;;;;5013142;28;20485;-47
2022/06/06 01:11:36;;;;;;;1.40;1.30;;;;;;;;;;5012525;28;20026;-46
2022/06/06 01:14:03;;;;;;;1.88;1.75;;;;;;;;;;5013021;28;20102;-46
2022/06/06 01:16:31;;;;;;;1.58;1.35;;;;;;;;;;5012724;28;20034;-46
2022/06/06 01:19:21;;;;;;;1.02;1.00;;;;;;;;;;5013039;28;20379;-45
2022/06/06 01:22:27;;;;;;;0.90;0.90;;;;;;;;;;5013036;28;20155;-46
2022/06/06 01:25:09;;;;;;;1.42;1.33;;;;;;;;;;4972563;28;20103;-47
2022/06/06 01:28:06;;;;;;;1.88;1.73;;;;;;;;;;5012940;28;20382;-46
2022/06/06 01:30:41;;;;;;;1.67;1.58;;;;;;;;;;5012909;28;20029;-46
2022/06/06 01:33:14;;;;;;;1.95;1.75;;;;;;;;;;5012554;28;20049;-46
2022/06/06 01:35:47;;;;;;;1.63;1.52;;;;;;;;;;5012748;28;20036;-46
2022/06/06 01:38:15;;;;;;;1.60;1.50;;;;;;;;;;5012938;28;20057;-47
2022/06/06 01:41:10;;;;;;;2.00;1.90;;;;;;;;;;5012465;28;20042;-45
2022/06/06 01:43:47;;;;;;;2.17;1.38;;;;;;;;;;5012523;28;20033;-46
2022/06/06 01:46:18;;;;;;;2.17;1.98;;;;;;;;;;5012515;28;20022;-47
2022/06/06 01:48:45;;;;;;;1.90;1.70;;;;;;;;;;5012741;28;20068;-46
2022/06/06 01:51:13;;;;;;;1.98;1.80;;;;;;;;;;5012681;28;20026;-45
2022/06/06 01:53:40;;;;;;;1.10;1.00;;;;;;;;;;5012338;28;20026;-46
2022/06/06 01:56:12;;;;;;;1.25;1.15;;;;;;;;;;5012595;28;20060;-47
2022/06/06 01:58:38;;;;;;;1.65;1.48;;;;;;;;;;5012658;28;20037;-45
2022/06/06 02:01:04;;;;;;;1.20;1.10;;;;;;;;;;5012644;28;20026;-46
2022/06/06 02:03:33;;;;;;;1.42;1.33;;;;;;;;;;5012537;28;20060;-46
2022/06/06 02:05:58;;;;;;;1.70;1.60;;;;;;;;;;5012340;28;20058;-48
2022/06/06 02:08:24;;;;;;;1.05;1.05;;;;;;;;;;5012497;28;20061;-47
2022/06/06 02:10:50;;;;;;;2.20;1.80;;;;;;;;;;5012456;28;20041;-47
2022/06/06 02:13:16;;;;;;;1.88;1.75;;;;;;;;;;5012479;28;20025;-48
2022/06/06 02:15:42;;;;;;;1.27;1.13;;;;;;;;;;5012414;28;20386;-47
2022/06/06 02:18:08;;;;;;;1.15;1.10;;;;;;;;;;5012161;28;20355;-46
2022/06/06 02:20:34;;;;;;;2.60;2.40;;;;;;;;;;5012118;28;20032;-46
2022/06/06 02:23:00;;;;;;;2.30;1.52;;;;;;;;;;5012875;28;20072;-45
2022/06/06 02:25:28;;;;;;;1.00;1.00;;;;;;;;;;5015742;28;20026;-45
2022/06/06 02:27:54;;;;;;;1.40;1.30;;;;;;;;;;5016019;28;20030;-46
2022/06/06 02:30:23;;;;;;;3.75;1.75;;;;;;;;;;5015630;28;20022;-47
2022/06/06 02:32:49;;;;;;;1.40;1.30;;;;;;;;;;5015534;28;20065;-46
2022/06/06 02:35:18;;;;;;;1.73;1.60;;;;;;;;;;5015728;28;20026;-47
2022/06/06 02:37:45;;;;;;;2.60;1.75;;;;;;;;;;5015809;28;20032;-46
2022/06/06 02:40:12;;;;;;;1.55;1.45;;;;;;;;;;5015452;28;20030;-46
2022/06/06 02:42:38;;;;;;;4.60;1.45;;;;;;;;;;5015511;28;20030;-47
2022/06/06 02:45:05;;;;;;;2.15;1.92;;;;;;;;;;5015437;28;20036;-46
2022/06/06 02:47:31;;;;;;;2.00;1.80;;;;;;;;;;5015555;28;20029;-47
2022/06/06 02:49:56;;;;;;;2.65;1.70;;;;;;;;;;5015345;28;20037;-46
2022/06/06 02:52:22;;;;;;;2.70;2.30;;;;;;;;;;5015515;28;20022;-46
2022/06/06 02:54:47;;;;;;;1.92;1.83;;;;;;;;;;5015166;28;20069;-47
2022/06/06 02:57:13;;;;;;;2.40;2.20;;;;;;;;;;5015529;28;20358;-46
2022/06/06 02:59:41;;;;;;;6.93;2.90;;;;;;;;;;5015541;28;20018;-46
2022/06/06 03:02:08;;;;;;;2.55;2.35;;;;;;;;;;5015341;28;20033;-45
2022/06/06 03:04:34;;;;;;;6.10;2.20;;;;;;;;;;5015356;28;20034;-46
2022/06/06 03:07:24;;;;;;;2.60;2.40;;;;;;;;;;5015261;28;20048;-46
2022/06/06 03:09:58;;;;;;;2.33;2.13;;;;;;;;;;5015262;28;20113;-48
2022/06/06 03:12:46;;;;;;;4.50;2.33;;;;;;;;;;5014866;28;20113;-46
2022/06/06 03:15:35;;;;;;;4.70;2.03;;;;;;;;;;5014769;28;20120;-46
2022/06/06 03:22:22;;;;;;;3.37;2.50;;;;;;;;;;4939026;28;20047;-46
2022/06/06 03:25:16;;;;;;;2.50;2.30;;;;;;;;;;5003940;28;20525;-46
2022/06/06 03:28:22;;;;;;;2.63;2.42;;;;;;;;;;5014869;28;20028;-47
2022/06/06 03:31:04;;;;;;;4.28;2.67;;;;;;;;;;4933612;29;20110;-47
2022/06/06 03:33:44;;;;;;;2.45;2.25;;;;;;;;;;4916216;29;20044;-46
2022/06/06 03:36:15;;;;;;;7.18;2.35;;;;;;;;;;4965598;28;20035;-45
2022/06/06 03:38:45;;;;;;;2.40;2.20;;;;;;;;;;4995023;28;20073;-45
2022/06/06 03:41:18;;;;;;;12.02;2.45;;;;;;;;;;4995122;28;20081;-46
2022/06/06 03:44:19;;;;;;;2.03;1.70;;;;;;;;;;4994793;28;20039;-46
2022/06/06 03:46:57;;;;;;;4.93;2.20;;;;;;;;;;4966566;28;20610;-46
2022/06/06 03:49:23;;;;;;;1.98;1.88;;;;;;;;;;4994893;28;20131;-45
2022/06/06 03:52:10;;;;;;;2.30;2.10;;;;;;;;;;4994879;28;20022;-46
2022/06/06 03:54:48;;;;;;;2.65;2.45;;;;;;;;;;4994523;28;20036;-46
2022/06/06 03:57:24;;;;;;;3.42;3.13;;;;;;;;;;4994481;28;20573;-46
2022/06/06 03:59:58;;;;;;;5.13;3.20;;;;;;;;;;4994705;28;20364;-46
2022/06/06 04:02:31;;;;;;;6.35;3.45;;;;;;;;;;4994647;28;20402;-47
2022/06/06 04:05:00;;;;;;;3.58;3.08;;;;;;;;;;4977478;28;20121;-46
2022/06/06 04:07:26;;;;;;;3.25;2.40;;;;;;;;;;4994233;28;20394;-46
2022/06/06 04:09:52;;;;;;;2.80;2.60;;;;;;;;;;4994161;28;20030;-45
2022/06/06 04:12:37;;;;;;;3.45;3.15;;;;;;;;;;4994245;28;20102;-46
2022/06/06 04:15:05;;;;;;;4.25;3.40;;;;;;;;;;4994324;28;20036;-48
2022/06/06 04:18:09;;;;;;;6.03;3.95;;;;;;;;;;4994313;28;20026;-48
2022/06/06 04:20:50;;;;;;;4.57;4.18;;;;;;;;;;4994333;28;20037;-46
2022/06/06 04:23:47;;;;;;;5.30;3.90;;;;;;;;;;4994588;28;20067;-46
2022/06/06 04:26:26;;;;;;;5.55;3.90;;;;;;;;;;4976754;28;20407;-46
2022/06/06 04:29:17;;;;;;;6.57;4.05;;;;;;;;;;4994207;28;20038;-46
2022/06/06 04:31:45;;;;;;;4.07;3.67;;;;;;;;;;4996466;28;20042;-46
2022/06/06 04:34:40;;;;;;;6.82;4.00;;;;;;;;;;5013718;28;20415;-47
2022/06/06 04:37:21;;;;;;;4.07;3.67;;;;;;;;;;5009256;28;20474;-47
2022/06/06 04:39:58;;;;;;;7.72;5.03;;;;;;;;;;5013644;28;20390;-46
2022/06/06 04:43:01;;;;;;;8.88;5.45;;;;;;;;;;5013502;28;20026;-46
2022/06/06 04:45:56;;;;;;;7.85;4.53;;;;;;;;;;5000586;28;20033;-45
2022/06/06 04:48:22;;;;;;;8.50;4.53;;;;;;;;;;5013469;28;20026;-46
2022/06/06 04:50:48;;;;;;;7.38;3.60;;;;;;;;;;5013137;28;20413;-47
2022/06/06 04:53:18;;;;;;;7.68;4.63;;;;;;;;;;5013386;28;20025;-46
2022/06/06 04:55:47;;;;;;;4.95;4.18;;;;;;;;;;5013066;28;20034;-46
2022/06/06 04:58:14;;;;;;;4.82;4.15;;;;;;;;;;5013245;28;20080;-46
2022/06/06 05:00:42;;;;;;;4.93;3.97;;;;;;;;;;5013212;28;20021;-45
2022/06/06 05:03:08;;;;;;;5.43;3.72;;;;;;;;;;5012800;28;20544;-45
2022/06/06 05:05:57;;;;;;;4.90;4.38;;;;;;;;;;5013190;28;20034;-46
2022/06/06 05:08:31;;;;;;;4.47;4.07;;;;;;;;;;5013154;28;20438;-48
2022/06/06 05:11:09;;;;;;;4.45;4.05;;;;;;;;;;5013173;28;20044;-45
2022/06/06 05:14:12;;;;;;;6.63;4.07;;;;;;;;;;5012794;28;20075;-47
2022/06/06 05:16:46;;;;;;;11.48;6.15;;;;;;;;;;5012938;28;20072;-48
2022/06/06 05:19:35;;;;;;;7.10;5.80;;;;;;;;;;5012808;28;20026;-46
2022/06/06 05:22:32;;;;;;;5.87;5.13;;;;;;;;;;5012820;28;20113;-48
2022/06/06 05:25:11;;;;;;;6.95;4.68;;;;;;;;;;5012670;28;20041;-50
2022/06/06 05:27:46;;;;;;;6.53;5.28;;;;;;;;;;5012721;28;20504;-50
2022/06/06 05:30:49;;;;;;;10.02;6.45;;;;;;;;;;5013016;28;20026;-52
2022/06/06 05:33:22;;;;;;;8.23;6.18;;;;;;;;;;5012610;28;20049;-46
2022/06/06 05:35:57;;;;;;;6.22;4.68;;;;;;;;;;5012736;28;20061;-46
2022/06/06 05:38:48;;;;;;;7.63;5.70;;;;;;;;;;5012596;28;20478;-49
2022/06/06 05:41:32;;;;;;;9.07;6.25;;;;;;;;;;5012849;28;20026;-49
2022/06/06 05:44:15;;;;;;;12.98;7.55;;;;;;;;;;5012757;28;20030;-48
2022/06/06 05:46:49;;;;;;;11.65;7.05;;;;;;;;;;5012544;28;20030;-53
2022/06/06 05:49:17;;;;;;;13.10;8.25;;;;;;;;;;5012755;28;20095;-47
2022/06/06 05:52:10;;;;;;;9.63;6.60;;;;;;;;;;5012512;28;20030;-50
2022/06/06 05:54:54;;;;;;;10.05;5.40;;;;;;;;;;5012575;28;20068;-49
2022/06/06 05:57:36;;;;;;;15.45;5.32;;;;;;;;;;5012451;28;20063;-50
2022/06/06 06:00:17;;;;;;;8.48;5.35;;;;;;;;;;5016227;28;20033;-47
2022/06/06 06:03:10;;;;;;;6.78;4.80;;;;;;;;;;5016458;28;20033;-48
2022/06/06 06:06:02;;;;;;;8.27;5.45;;;;;;;;;;5016193;28;20107;-51
2022/06/06 06:08:33;;;;;;;7.72;4.47;;;;;;;;;;4980557;28;20042;-52
2022/06/06 06:11:46;;;;;;;5.28;4.78;;;;;;;;;;5016053;28;20026;-49
2022/06/06 06:14:37;;;;;;;5.93;4.47;;;;;;;;;;4936137;29;20031;-48
2022/06/06 06:17:03;;;;;;;4.60;4.20;;;;;;;;;;4936180;29;20044;-52
2022/06/06 06:19:49;;;;;;;2.17;2.00;;;;;;;;;;4991628;28;20038;-49
2022/06/06 06:22:17;;;;;;;2.13;1.92;;;;;;;;;;5015857;28;20572;-47
2022/06/06 06:24:43;;;;;;;3.38;3.08;;;;;;;;;;5015796;28;20373;-46
2022/06/06 06:27:10;;;;;;;2.67;2.47;;;;;;;;;;5016048;28;20034;-48
2022/06/06 06:29:36;;;;;;;2.78;2.58;;;;;;;;;;5015712;28;20048;-48
2022/06/06 06:32:40;;;;;;;2.80;2.60;;;;;;;;;;5015732;28;20046;-46
2022/06/06 06:35:06;;;;;;;3.20;2.88;;;;;;;;;;4935701;29;20056;-46
2022/06/06 06:37:47;;;;;;;9.45;3.42;;;;;;;;;;5000216;28;20440;-46
2022/06/06 06:40:12;;;;;;;2.92;2.63;;;;;;;;;;5015609;28;20371;-48
2022/06/06 06:43:02;;;;;;;3.53;3.22;;;;;;;;;;5015900;28;20029;-47
2022/06/06 06:45:44;;;;;;;9.95;6.47;;;;;;;;;;5015816;28;20026;-48
2022/06/06 06:48:15;;;;;;;5.55;3.97;;;;;;;;;;5015742;28;20033;-47
2022/06/06 06:50:52;;;;;;;4.28;3.88;;;;;;;;;;5015366;28;20029;-47
2022/06/06 06:53:42;;;;;;;3.83;3.30;;;;;;;;;;5015339;28;20508;-48
2022/06/06 06:56:16;;;;;;;7.28;3.95;;;;;;;;;;5015683;28;20056;-49
2022/06/06 06:58:54;;;;;;;2.63;2.42;;;;;;;;;;5015518;28;20026;-47
2022/06/06 07:01:36;;;;;;;12.70;3.25;;;;;;;;;;5015404;28;20425;-47
2022/06/06 07:10:22;;;;;;;4.00;3.60;;;;;;;;;;5014154;28;20156;-48
2022/06/06 07:13:25;;;;;;;4.32;3.90;;;;;;;;;;5014969;28;20038;-49
2022/06/06 07:16:09;;;;;;;4.07;3.30;;;;;;;;;;5015077;28;20030;-48
2022/06/06 07:18:38;;;;;;;9.93;5.43;;;;;;;;;;5015114;28;20041;-47
2022/06/06 07:21:07;;;;;;;5.82;3.55;;;;;;;;;;5014840;28;20026;-48
2022/06/06 07:23:37;;;;;;;3.80;3.33;;;;;;;;;;5015050;28;20446;-47
2022/06/06 07:26:04;;;;;;;3.00;2.63;;;;;;;;;;5014788;28;20049;-48
2022/06/06 07:28:30;;;;;;;2.55;2.35;;;;;;;;;;5014974;28;20030;-48
2022/06/06 07:31:08;;;;;;;6.68;4.82;;;;;;;;;;5014836;28;20363;-46
2022/06/06 07:34:11;;;;;;;5.38;3.70;;;;;;;;;;5014540;28;20053;-46
2022/06/06 07:36:49;;;;;;;4.88;3.80;;;;;;;;;;5014467;28;20041;-45
2022/06/06 07:39:38;;;;;;;3.90;3.50;;;;;;;;;;5014713;28;20117;-47
2022/06/06 07:42:18;;;;;;;4.28;3.47;;;;;;;;;;5014762;28;20416;-46
2022/06/06 07:45:30;;;;;;;5.05;4.22;;;;;;;;;;5014664;28;20064;-45
2022/06/06 07:48:10;;;;;;;3.15;2.95;;;;;;;;;;4934510;29;20039;-46
2022/06/06 07:51:06;;;;;;;3.17;2.88;;;;;;;;;;4934543;29;20472;-45
2022/06/06 07:53:43;;;;;;;6.40;3.30;;;;;;;;;;4963933;28;20118;-45
2022/06/06 07:56:14;;;;;;;7.22;4.82;;;;;;;;;;5014333;28;20034;-46
2022/06/06 07:59:11;;;;;;;4.25;3.63;;;;;;;;;;5014064;28;20520;-45
2022/06/06 08:02:07;;;;;;;4.78;3.30;;;;;;;;;;5008092;28;20066;-46
2022/06/06 08:04:53;;;;;;;3.63;2.85;;;;;;;;;;5013681;28;20117;-47
2022/06/06 08:07:31;;;;;;;3.50;2.70;;;;;;;;;;5012093;28;20038;-46
2022/06/06 08:10:21;;;;;;;2.53;2.33;;;;;;;;;;5013488;28;20374;-48
2022/06/06 08:12:55;;;;;;;;;;;;;;;;;;5013080;28;20033;-46
2022/06/06 08:15:27;;;;;;;2.70;2.50;;;;;;;;;;5012019;28;19920;-45
2022/06/06 08:18:18;;;;;;;5.63;3.45;;;;;;;;;;5012484;28;20041;-46
2022/06/06 08:21:09;;;;;;;9.10;2.90;;;;;;;;;;5012350;28;20033;-45
2022/06/06 08:23:37;;;;;;;4.82;3.60;;;;;;;;;;5013399;28;20036;-47
2022/06/06 08:26:04;;;;;;;4.78;3.10;;;;;;;;;;5013638;28;20031;-46
2022/06/06 08:28:31;;;;;;;2.80;2.60;;;;;;;;;;5012124;28;20057;-46
2022/06/06 08:30:57;;;;;;;6.70;4.03;;;;;;;;;;5013527;28;20160;-48
2022/06/06 08:33:24;;;;;;;6.28;4.03;;;;;;;;;;5013087;28;20537;-50
2022/06/06 08:35:53;;;;;;;5.78;3.60;;;;;;;;;;5013545;28;20049;-46
2022/06/06 08:38:38;;;;;;;5.57;2.80;;;;;;;;;;5013739;28;20042;-46
2022/06/06 08:41:15;;;;;;;6.35;3.20;;;;;;;;;;5012901;28;20418;-47
2022/06/06 08:44:04;;;;;;;6.15;4.18;;;;;;;;;;5011925;28;20022;-49
2022/06/06 08:46:58;;;;;;;9.63;3.55;;;;;;;;;;5011632;28;20049;-46
2022/06/06 08:52:26;;;;;;;3.20;2.90;;;;;;;;;;5013219;28;20049;-46
2022/06/06 08:55:13;;;;;;;3.40;3.03;;;;;;;;;;5012099;28;20026;-46
2022/06/06 08:57:53;;;;;;;4.40;3.03;;;;;;;;;;5012197;28;20026;-47
2022/06/06 09:00:38;;;;;;;4.57;2.85;;;;;;;;;;5012965;28;20028;-47
2022/06/06 09:03:35;;;;;;;3.22;2.80;;;;;;;;;;5012949;28;20064;-48
2022/06/06 09:06:35;;;;;;;5.22;2.75;;;;;;;;;;5012561;28;20113;-47
2022/06/06 09:09:22;;;;;;;4.00;3.10;;;;;;;;;;5013042;28;20053;-47
2022/06/06 09:12:04;;;;;;;3.70;3.03;;;;;;;;;;5012638;28;20105;-48
2022/06/06 09:15:04;;;;;;;4.38;3.00;;;;;;;;;;5012906;28;20030;-45
2022/06/06 09:17:32;;;;;;;;;;;;;;;;;;5013104;28;20105;-45
2022/06/06 09:20:07;;;;;;;2.50;2.30;;;;;;;;;;5012783;28;20042;-46
2022/06/06 09:22:43;;;;;;;3.58;2.17;;;;;;;;;;5013065;28;20030;-45
2022/06/06 09:25:35;;;;;;;4.10;2.58;;;;;;;;;;5011096;28;20038;-45
2022/06/06 09:28:37;;;;;;;5.18;2.60;;;;;;;;;;5012278;28;20509;-45
2022/06/06 09:31:05;;;;;;;2.55;2.35;;;;;;;;;;5012538;28;20030;-44
2022/06/06 09:34:03;;;;;;;4.68;2.60;;;;;;;;;;5011694;28;20049;-46
2022/06/06 09:37:03;;;;;;;4.45;2.70;;;;;;;;;;4943544;28;20561;-47
2022/06/06 09:39:50;;;;;;;3.17;2.88;;;;;;;;;;5012550;28;20022;-45
2022/06/06 09:42:40;;;;;;;2.70;2.50;;;;;;;;;;5012640;28;20104;-46
2022/06/06 09:45:29;;;;;;;7.65;2.38;;;;;;;;;;5012321;28;20037;-46
2022/06/06 09:48:03;;;;;;;2.72;2.53;;;;;;;;;;5012716;28;20046;-45
2022/06/06 09:50:44;;;;;;;3.65;2.65;;;;;;;;;;5012626;28;20108;-45
2022/06/06 09:53:43;;;;;;;3.85;3.40;;;;;;;;;;5012657;28;20037;-45
2022/06/06 09:59:55;;;;;;;3.65;3.17;;;;;;;;;;5012647;28;20044;-50
2022/06/06 10:02:40;;;;;;;2.40;2.20;;;;;;;;;;5011955;28;20056;-47
2022/06/06 10:05:36;;;;;;;2.58;2.38;;;;;;;;;;5012455;28;20050;-49
2022/06/06 10:08:25;;;;;;;5.93;2.50;;;;;;;;;;5011365;28;20069;-46
2022/06/06 10:10:53;;;;;;;;;;;;;;;;;;5011728;28;20030;-46
2022/06/06 10:13:22;;;;;;;2.28;2.00;;;;;;;;;;5011999;28;19913;-51
2022/06/06 10:16:07;;;;;;;2.50;2.30;;;;;;;;;;5012312;28;20033;-49
2022/06/06 10:19:02;;;;;;;3.15;2.30;;;;;;;;;;5012527;28;20113;-52
2022/06/06 10:22:08;;;;;;;2.13;2.03;;;;;;;;;;5012395;28;20022;-45
2022/06/06 10:25:04;;;;;;;3.33;2.33;;;;;;;;;;5012367;28;20109;-47
2022/06/06 10:27:47;;;;;;;3.47;2.10;;;;;;;;;;5011980;28;20474;-47
2022/06/06 10:30:21;;;;;;;2.20;2.10;;;;;;;;;;5011940;28;20414;-45
2022/06/06 10:32:59;;;;;;;2.72;1.90;;;;;;;;;;5011620;28;20053;-47
2022/06/06 10:36:08;;;;;;;2.22;2.03;;;;;;;;;;5010047;28;20405;-45
2022/06/06 10:39:06;;;;;;;2.22;1.98;;;;;;;;;;4958850;28;20043;-45
2022/06/06 10:41:42;;;;;;;2.00;1.90;;;;;;;;;;4977802;28;20076;-45
2022/06/06 10:44:16;;;;;;;2.40;2.20;;;;;;;;;;5011852;28;20134;-45
2022/06/06 10:47:03;;;;;;;3.45;2.40;;;;;;;;;;5015768;28;20030;-46
2022/06/06 10:49:34;;;;;;;2.45;2.28;;;;;;;;;;5015743;28;20045;-46
2022/06/06 10:52:09;;;;;;;2.28;2.00;;;;;;;;;;5015413;28;20041;-45
2022/06/06 10:54:53;;;;;;;2.72;2.25;;;;;;;;;;5015334;28;20116;-46
2022/06/06 10:57:47;;;;;;;2.22;2.03;;;;;;;;;;5015276;28;20084;-49
2022/06/06 11:00:31;;;;;;;2.08;1.90;;;;;;;;;;5011250;28;20030;-52
2022/06/06 11:03:06;;;;;;;1.83;1.73;;;;;;;;;;4997560;28;20045;-47
2022/06/06 11:06:05;;;;;;;3.90;2.20;;;;;;;;;;5015134;28;20036;-47
2022/06/06 11:09:03;;;;;;;1.92;1.83;;;;;;;;;;5015099;28;20486;-48
2022/06/06 11:12:06;;;;;;;2.90;2.15;;;;;;;;;;5013900;28;20044;-47
2022/06/06 11:14:44;;;;;;;3.30;2.20;;;;;;;;;;5014914;28;20076;-49
2022/06/06 11:17:34;;;;;;;2.40;2.20;;;;;;;;;;5015135;28;20109;-46
2022/06/06 11:20:15;;;;;;;2.00;1.90;;;;;;;;;;5014752;28;20578;-47
2022/06/06 11:22:42;;;;;;;2.45;2.25;;;;;;;;;;5014877;28;20474;-51
2022/06/06 11:25:19;;;;;;;2.38;2.08;;;;;;;;;;5014660;28;20045;-46
2022/06/06 11:28:12;;;;;;;3.50;2.38;;;;;;;;;;5014703;28;20030;-50
2022/06/06 11:31:19;;;;;;;2.40;2.25;;;;;;;;;;5014924;28;20057;-47
2022/06/06 11:33:57;;;;;;;2.20;2.00;;;;;;;;;;4972355;28;20073;-48
2022/06/06 11:37:13;;;;;;;2.42;2.22;;;;;;;;;;4994980;28;20026;-46
2022/06/06 11:40:17;;;;;;;2.05;1.85;;;;;;;;;;4969657;28;20062;-49
2022/06/06 11:43:09;;;;;;;2.17;2.08;;;;;;;;;;4994933;28;20105;-47
2022/06/06 11:46:02;;;;;;;2.28;2.08;;;;;;;;;;4994761;28;20096;-45
2022/06/06 11:48:46;;;;;;;6.28;2.30;;;;;;;;;;4994751;28;20050;-46
2022/06/06 11:51:35;;;;;;;2.60;2.08;;;;;;;;;;4995055;28;20026;-49
2022/06/06 11:54:18;;;;;;;2.60;2.30;;;;;;;;;;4994636;28;20034;-46
2022/06/06 11:57:02;;;;;;;2.15;2.05;;;;;;;;;;4993896;28;20038;-47
2022/06/06 12:00:07;;;;;;;2.30;2.10;;;;;;;;;;4994858;28;20031;-45
2022/06/06 12:03:09;;;;;;;3.05;1.92;;;;;;;;;;4994529;28;20029;-48
2022/06/06 12:05:56;;;;;;;2.10;2.00;;;;;;;;;;4994758;28;20106;-46
2022/06/06 12:08:29;;;;;;;3.50;2.15;;;;;;;;;;4994642;28;20050;-50
2022/06/06 12:11:35;;;;;;;3.55;2.30;;;;;;;;;;4994618;28;20065;-48
2022/06/06 12:14:17;;;;;;;8.52;2.58;;;;;;;;;;4985894;28;20089;-46
2022/06/06 12:16:58;;;;;;;2.10;2.00;;;;;;;;;;4994511;28;20034;-48
2022/06/06 12:19:57;;;;;;;2.10;2.00;;;;;;;;;;4994472;28;20061;-45
2022/06/06 12:22:38;;;;;;;2.78;1.98;;;;;;;;;;4994216;28;20031;-45
2022/06/06 12:25:19;;;;;;;2.00;1.90;;;;;;;;;;4994031;28;20038;-47
2022/06/06 12:27:48;;;;;;;14.10;2.40;;;;;;;;;;4994241;28;20097;-47
2022/06/06 12:30:44;;;;;;;2.20;2.10;;;;;;;;;;4994247;28;20057;-48
2022/06/06 12:33:17;;;;;;;2.10;2.00;;;;;;;;;;5004044;28;20065;-51
2022/06/06 12:36:27;;;;;;;4.50;1.90;;;;;;;;;;5013347;28;20033;-48
2022/06/06 12:39:13;;;;;;;2.00;1.90;;;;;;;;;;4933629;29;20071;-48
2022/06/06 12:41:47;;;;;;;2.30;2.10;;;;;;;;;;4990552;28;20065;-48
2022/06/06 12:44:31;;;;;;;3.42;1.80;;;;;;;;;;5013636;28;20028;-51
2022/06/06 12:47:12;;;;;;;2.03;1.92;;;;;;;;;;5013322;28;20057;-48
2022/06/06 12:49:52;;;;;;;2.20;2.00;;;;;;;;;;5013342;28;20590;-50
2022/06/06 12:52:39;;;;;;;2.13;1.90;;;;;;;;;;5013447;28;20034;-46
2022/06/06 12:55:30;;;;;;;2.28;2.08;;;;;;;;;;5013382;28;20100;-47
2022/06/06 12:57:56;;;;;;;5.03;2.15;;;;;;;;;;5013003;28;20080;-46
2022/06/06 13:03:34;;;;;;;1.75;1.65;;;;;;;;;;5013421;28;20032;-48
2022/06/06 13:06:26;;;;;;;1.85;1.75;;;;;;;;;;5012909;28;20040;-45
2022/06/06 13:09:14;;;;;;;2.25;2.08;;;;;;;;;;5011975;28;20056;-48
2022/06/06 13:12:07;;;;;;;2.22;2.13;;;;;;;;;;5012860;28;20505;-45
2022/06/06 13:14:57;;;;;;;2.30;2.10;;;;;;;;;;5013063;28;20026;-47
2022/06/06 13:17:41;;;;;;;5.88;2.10;;;;;;;;;;5012876;28;20057;-45
2022/06/06 13:20:25;;;;;;;2.20;2.00;;;;;;;;;;5012739;28;20026;-44
2022/06/06 13:23:17;;;;;;;2.17;2.05;;;;;;;;;;5013049;28;20069;-47
2022/06/06 13:26:02;;;;;;;2.08;1.92;;;;;;;;;;5013028;28;20473;-45
2022/06/06 13:28:31;;;;;;;2.10;2.00;;;;;;;;;;5012668;28;20030;-46
2022/06/06 13:31:10;;;;;;;2.10;2.00;;;;;;;;;;5012626;28;20106;-45
2022/06/06 13:34:03;;;;;;;2.17;1.80;;;;;;;;;;5012484;28;20473;-48
2022/06/06 13:36:37;;;;;;;2.05;1.95;;;;;;;;;;5011190;28;20069;-47
2022/06/06 13:39:43;;;;;;;1.48;1.38;;;;;;;;;;5012912;28;20114;-45
2022/06/06 13:42:18;;;;;;;1.75;1.60;;;;;;;;;;5012635;28;20032;-45
2022/06/06 13:44:44;;;;;;;2.70;1.90;;;;;;;;;;5012803;28;20038;-45
2022/06/06 13:47:29;;;;;;;2.25;1.90;;;;;;;;;;5012581;28;20052;-46
2022/06/06 13:50:00;;;;;;;1.98;1.85;;;;;;;;;;5012699;28;20088;-47
2022/06/06 13:52:41;;;;;;;6.70;3.05;;;;;;;;;;5012477;28;20030;-47
2022/06/06 13:55:23;;;;;;;3.90;1.80;;;;;;;;;;5012321;28;20034;-47
2022/06/06 13:57:55;;;;;;;2.13;2.00;;;;;;;;;;5012977;28;20058;-45
2022/06/06 14:00:29;;;;;;;1.75;1.65;;;;;;;;;;5012392;28;20117;-46
2022/06/06 14:03:25;;;;;;;2.00;1.90;;;;;;;;;;5012362;28;20507;-46
2022/06/06 14:06:00;;;;;;;2.75;1.70;;;;;;;;;;5012365;28;20482;-48
2022/06/06 14:08:56;;;;;;;2.10;1.60;;;;;;;;;;5012293;28;20105;-46
2022/06/06 14:11:42;;;;;;;1.70;1.60;;;;;;;;;;5012587;28;20037;-45
2022/06/06 14:14:08;;;;;;;2.95;1.58;;;;;;;;;;5012551;28;20037;-47
2022/06/06 14:16:41;;;;;;;1.70;1.60;;;;;;;;;;5012342;28;20049;-47
2022/06/06 14:19:16;;;;;;;2.78;1.60;;;;;;;;;;5013533;28;20025;-48
2022/06/06 14:21:58;;;;;;;1.58;1.48;;;;;;;;;;4998718;28;20065;-46
2022/06/06 14:24:29;;;;;;;1.70;1.60;;;;;;;;;;5016163;28;20382;-46
2022/06/06 14:27:12;;;;;;;2.75;1.52;;;;;;;;;;5015830;28;20560;-46
2022/06/06 14:29:54;;;;;;;2.60;1.60;;;;;;;;;;5015844;28;20038;-46
2022/06/06 14:32:27;;;;;;;2.15;1.80;;;;;;;;;;5015894;28;20053;-49
2022/06/06 14:34:56;;;;;;;2.90;1.63;;;;;;;;;;5016018;28;20037;-49
2022/06/06 14:37:26;;;;;;;2.05;1.70;;;;;;;;;;5015656;28;20486;-46
2022/06/06 14:40:07;;;;;;;2.83;1.80;;;;;;;;;;5015616;28;20541;-46
2022/06/06 14:42:39;;;;;;;1.67;1.58;;;;;;;;;;5015509;28;20473;-48
2022/06/06 14:45:32;;;;;;;1.83;1.70;;;;;;;;;;5015493;28;20053;-46
2022/06/06 14:48:04;;;;;;;1.77;1.67;;;;;;;;;;5015482;28;20033;-47
2022/06/06 14:50:47;;;;;;;1.77;1.67;;;;;;;;;;5015455;28;20022;-46
2022/06/06 14:53:22;;;;;;;2.55;1.80;;;;;;;;;;5015718;28;20022;-46
2022/06/06 14:55:52;;;;;;;1.85;1.75;;;;;;;;;;5015210;28;20033;-48
2022/06/06 14:58:23;;;;;;;1.80;1.70;;;;;;;;;;5015280;28;20109;-46
2022/06/06 15:00:50;;;;;;;1.70;1.52;;;;;;;;;;5015206;28;20021;-46
2022/06/06 15:03:16;;;;;;;1.85;1.75;;;;;;;;;;5015429;28;20030;-46
2022/06/06 15:05:43;;;;;;;2.05;1.90;;;;;;;;;;5015356;28;20033;-48
2022/06/06 15:08:32;;;;;;;1.70;1.60;;;;;;;;;;5015048;28;20404;-46
2022/06/06 15:11:12;;;;;;;2.97;1.75;;;;;;;;;;5015355;28;20053;-48
2022/06/06 15:13:43;;;;;;;4.15;1.98;;;;;;;;;;5015329;28;20089;-47
2022/06/06 15:16:11;;;;;;;1.60;1.50;;;;;;;;;;5015147;28;20045;-47
2022/06/06 15:18:44;;;;;;;1.77;1.67;;;;;;;;;;5015222;28;20021;-48
2022/06/06 15:21:09;;;;;;;2.67;1.70;;;;;;;;;;5014931;28;20076;-46
2022/06/06 15:23:42;;;;;;;2.15;1.83;;;;;;;;;;5015139;28;20026;-46
2022/06/06 15:26:36;;;;;;;2.10;1.90;;;;;;;;;;5015350;28;20022;-46
2022/06/06 15:29:23;;;;;;;3.53;1.83;;;;;;;;;;5014734;28;20029;-47
2022/06/06 15:31:54;;;;;;;1.90;1.80;;;;;;;;;;5013898;28;20030;-46
2022/06/06 15:34:20;;;;;;;1.80;1.70;;;;;;;;;;5014896;28;20402;-46
2022/06/06 15:37:23;;;;;;;2.13;1.80;;;;;;;;;;5014739;28;20033;-47
2022/06/06 15:40:07;;;;;;;2.90;1.70;;;;;;;;;;4983937;28;20037;-47
2022/06/06 15:42:45;;;;;;;1.67;1.55;;;;;;;;;;5014813;28;20041;-46
2022/06/06 15:45:29;;;;;;;1.98;1.88;;;;;;;;;;5014728;28;20036;-46
2022/06/06 15:48:03;;;;;;;2.15;1.63;;;;;;;;;;5014659;28;20079;-46
2022/06/06 15:51:24;;;;;;;1.95;1.80;;;;;;;;;;5014630;28;20026;-46
2022/06/06 15:54:14;;;;;;;3.50;2.00;;;;;;;;;;5013629;28;20029;-47
2022/06/06 15:57:10;;;;;;;2.75;1.70;;;;;;;;;;5014194;28;20596;-47
2022/06/06 16:00:15;;;;;;;1.90;1.80;;;;;;;;;;5014476;28;20168;-47
2022/06/06 16:02:43;;;;;;;1.58;1.48;;;;;;;;;;5014148;28;20469;-47
2022/06/06 16:05:15;;;;;;;1.95;1.85;;;;;;;;;;5014282;28;20041;-46
2022/06/06 16:07:52;;;;;;;2.00;1.90;;;;;;;;;;5013950;28;20474;-48
2022/06/06 16:10:28;;;;;;;1.80;1.70;;;;;;;;;;5014311;28;20152;-51
2022/06/06 16:13:15;;;;;;;1.90;1.80;;;;;;;;;;5013899;28;20037;-46
2022/06/06 16:16:13;;;;;;;1.75;1.65;;;;;;;;;;5013990;28;20354;-47
2022/06/06 16:18:52;;;;;;;2.17;2.08;;;;;;;;;;5013851;28;20529;-47
2022/06/06 16:21:20;;;;;;;1.60;1.50;;;;;;;;;;5014115;28;20076;-47